sensor_id;sensor_type;location;lat;lon;timestamp;P1;durP1;ratioP1;P2;durP2;ratioP2
37777;SDS011;23615;51.506;7.678;2023-01-29T00:01:57;29.50;;;21.17;;
37777;SDS011;23615;51.506;7.678;2023-01-29T00:04:23;26.57;;;20.87;;
37777;SDS011;23615;51.506;7.678;2023-01-29T00:06:48;24.65;;;19.88;;
37777;SDS011;23615;51.506;7.678;2023-01-29T00:09:14;22.03;;;17.60;;
37777;SDS011;23615;51.506;7.678;2023-01-29T00:11:39;22.03;;;17.63;;
37777;SDS011;23615;51.506;7.678;2023-01-29T00:14:05;27.57;;;21.30;;
37777;SDS011;23615;51.506;7.678;2023-01-29T00:16:31;29.02;;;21.90;;
37777;SDS011;23615;51.506;7.678;2023-01-29T00:18:56;27.67;;;21.77;;
37777;SDS011;23615;51.506;7.678;2023-01-29T00:21:22;25.40;;;20.33;;
37777;SDS011;23615;51.506;7.678;2023-01-29T00:23:47;25.77;;;20.38;;
37777;SDS011;23615;51.506;7.678;2023-01-29T00:26:14;21.73;;;17.73;;
37777;SDS011;23615;51.506;7.678;2023-01-29T00:28:40;25.15;;;19.58;;
37777;SDS011;23615;51.506;7.678;2023-01-29T00:31:06;22.53;;;18.67;;
37777;SDS011;23615;51.506;7.678;2023-01-29T00:33:36;23.53;;;18.10;;
37777;SDS011;23615;51.506;7.678;2023-01-29T00:36:05;20.08;;;15.95;;
37777;SDS011;23615;51.506;7.678;2023-01-29T00:38:32;20.35;;;15.88;;
37777;SDS011;23615;51.506;7.678;2023-01-29T00:41:08;22.60;;;17.77;;
37777;SDS011;23615;51.506;7.678;2023-01-29T00:43:54;22.17;;;17.00;;
37777;SDS011;23615;51.506;7.678;2023-01-29T00:46:38;28.58;;;21.67;;
37777;SDS011;23615;51.506;7.678;2023-01-29T00:49:03;26.83;;;19.47;;
37777;SDS011;23615;51.506;7.678;2023-01-29T00:51:29;26.33;;;19.50;;
37777;SDS011;23615;51.506;7.678;2023-01-29T00:53:55;25.47;;;19.63;;
37777;SDS011;23615;51.506;7.678;2023-01-29T00:56:23;22.92;;;17.40;;
37777;SDS011;23615;51.506;7.678;2023-01-29T00:58:50;28.48;;;21.52;;
37777;SDS011;23615;51.506;7.678;2023-01-29T01:01:16;25.88;;;20.90;;
37777;SDS011;23615;51.506;7.678;2023-01-29T01:04:02;24.50;;;18.73;;
37777;SDS011;23615;51.506;7.678;2023-01-29T01:06:27;28.55;;;21.75;;
37777;SDS011;23615;51.506;7.678;2023-01-29T01:08:52;27.63;;;21.03;;
37777;SDS011;23615;51.506;7.678;2023-01-29T01:11:36;25.50;;;19.63;;
37777;SDS011;23615;51.506;7.678;2023-01-29T01:14:01;24.37;;;18.97;;
37777;SDS011;23615;51.506;7.678;2023-01-29T01:16:26;26.43;;;20.00;;
37777;SDS011;23615;51.506;7.678;2023-01-29T01:18:52;28.60;;;21.53;;
37777;SDS011;23615;51.506;7.678;2023-01-29T01:21:17;28.27;;;21.50;;
37777;SDS011;23615;51.506;7.678;2023-01-29T01:23:42;26.63;;;20.10;;
37777;SDS011;23615;51.506;7.678;2023-01-29T01:26:08;23.53;;;18.27;;
37777;SDS011;23615;51.506;7.678;2023-01-29T01:28:34;23.52;;;18.25;;
37777;SDS011;23615;51.506;7.678;2023-01-29T01:31:06;22.23;;;17.30;;
37777;SDS011;23615;51.506;7.678;2023-01-29T01:33:35;20.63;;;15.85;;
37777;SDS011;23615;51.506;7.678;2023-01-29T01:36:01;22.25;;;17.02;;
37777;SDS011;23615;51.506;7.678;2023-01-29T01:38:27;28.15;;;21.00;;
37777;SDS011;23615;51.506;7.678;2023-01-29T01:40:52;26.03;;;19.43;;
37777;SDS011;23615;51.506;7.678;2023-01-29T01:43:18;26.40;;;19.60;;
37777;SDS011;23615;51.506;7.678;2023-01-29T01:45:43;26.47;;;20.00;;
37777;SDS011;23615;51.506;7.678;2023-01-29T01:48:23;23.80;;;18.42;;
37777;SDS011;23615;51.506;7.678;2023-01-29T01:51:08;26.55;;;20.92;;
37777;SDS011;23615;51.506;7.678;2023-01-29T01:53:41;30.63;;;22.98;;
37777;SDS011;23615;51.506;7.678;2023-01-29T01:56:15;26.50;;;20.80;;
37777;SDS011;23615;51.506;7.678;2023-01-29T01:58:49;30.45;;;21.45;;
37777;SDS011;23615;51.506;7.678;2023-01-29T02:01:18;28.00;;;20.20;;
37777;SDS011;23615;51.506;7.678;2023-01-29T02:03:53;27.75;;;21.17;;
37777;SDS011;23615;51.506;7.678;2023-01-29T02:06:52;30.15;;;22.48;;
37777;SDS011;23615;51.506;7.678;2023-01-29T02:09:38;28.58;;;21.58;;
37777;SDS011;23615;51.506;7.678;2023-01-29T02:12:10;30.90;;;22.67;;
37777;SDS011;23615;51.506;7.678;2023-01-29T02:14:37;31.33;;;22.40;;
37777;SDS011;23615;51.506;7.678;2023-01-29T02:17:05;31.63;;;22.85;;
37777;SDS011;23615;51.506;7.678;2023-01-29T02:19:38;28.85;;;22.00;;
37777;SDS011;23615;51.506;7.678;2023-01-29T02:22:16;31.67;;;23.67;;
37777;SDS011;23615;51.506;7.678;2023-01-29T02:28:01;32.55;;;23.20;;
37777;SDS011;23615;51.506;7.678;2023-01-29T02:33:21;23.83;;;18.88;;
37777;SDS011;23615;51.506;7.678;2023-01-29T02:36:01;25.40;;;18.25;;
37777;SDS011;23615;51.506;7.678;2023-01-29T02:38:39;22.13;;;17.50;;
37777;SDS011;23615;51.506;7.678;2023-01-29T02:44:07;22.17;;;16.25;;
37777;SDS011;23615;51.506;7.678;2023-01-29T02:49:22;23.92;;;16.67;;
37777;SDS011;23615;51.506;7.678;2023-01-29T02:56:57;19.70;;;15.93;;
37777;SDS011;23615;51.506;7.678;2023-01-29T02:59:30;23.95;;;18.17;;
37777;SDS011;23615;51.506;7.678;2023-01-29T03:02:21;23.48;;;17.27;;
37777;SDS011;23615;51.506;7.678;2023-01-29T03:04:50;31.30;;;21.58;;
37777;SDS011;23615;51.506;7.678;2023-01-29T03:07:23;25.90;;;20.00;;
37777;SDS011;23615;51.506;7.678;2023-01-29T03:10:14;26.27;;;18.80;;
37777;SDS011;23615;51.506;7.678;2023-01-29T03:12:43;26.60;;;19.10;;
37777;SDS011;23615;51.506;7.678;2023-01-29T03:15:19;27.10;;;20.30;;
37777;SDS011;23615;51.506;7.678;2023-01-29T03:17:52;29.20;;;21.10;;
37777;SDS011;23615;51.506;7.678;2023-01-29T03:20:23;28.20;;;19.70;;
37777;SDS011;23615;51.506;7.678;2023-01-29T03:22:57;27.52;;;19.33;;
37777;SDS011;23615;51.506;7.678;2023-01-29T03:25:27;32.80;;;22.27;;
37777;SDS011;23615;51.506;7.678;2023-01-29T03:28:12;31.23;;;22.77;;
37777;SDS011;23615;51.506;7.678;2023-01-29T03:31:04;33.85;;;23.58;;
37777;SDS011;23615;51.506;7.678;2023-01-29T03:33:57;31.02;;;22.73;;
37777;SDS011;23615;51.506;7.678;2023-01-29T03:36:41;32.83;;;22.73;;
37777;SDS011;23615;51.506;7.678;2023-01-29T03:39:14;32.80;;;23.30;;
37777;SDS011;23615;51.506;7.678;2023-01-29T03:41:43;32.15;;;22.75;;
37777;SDS011;23615;51.506;7.678;2023-01-29T03:46:41;31.20;;;22.20;;
37777;SDS011;23615;51.506;7.678;2023-01-29T03:49:18;32.38;;;23.80;;
37777;SDS011;23615;51.506;7.678;2023-01-29T03:51:59;33.70;;;24.05;;
37777;SDS011;23615;51.506;7.678;2023-01-29T04:00:27;32.40;;;23.08;;
37777;SDS011;23615;51.506;7.678;2023-01-29T04:03:12;29.98;;;21.70;;
37777;SDS011;23615;51.506;7.678;2023-01-29T04:08:26;33.72;;;24.15;;
37777;SDS011;23615;51.506;7.678;2023-01-29T04:10:55;29.90;;;22.02;;
37777;SDS011;23615;51.506;7.678;2023-01-29T04:13:23;33.58;;;22.70;;
37777;SDS011;23615;51.506;7.678;2023-01-29T04:15:51;29.95;;;20.73;;
37777;SDS011;23615;51.506;7.678;2023-01-29T04:18:20;30.42;;;21.48;;
37777;SDS011;23615;51.506;7.678;2023-01-29T04:20:45;29.77;;;21.73;;
37777;SDS011;23615;51.506;7.678;2023-01-29T04:23:24;33.57;;;22.47;;
37777;SDS011;23615;51.506;7.678;2023-01-29T04:28:58;29.77;;;21.17;;
37777;SDS011;23615;51.506;7.678;2023-01-29T04:31:31;30.60;;;22.10;;
37777;SDS011;23615;51.506;7.678;2023-01-29T04:36:58;30.03;;;21.73;;
37777;SDS011;23615;51.506;7.678;2023-01-29T04:39:37;32.20;;;22.77;;
37777;SDS011;23615;51.506;7.678;2023-01-29T04:44:49;31.27;;;22.03;;
37777;SDS011;23615;51.506;7.678;2023-01-29T04:47:34;32.37;;;22.87;;
37777;SDS011;23615;51.506;7.678;2023-01-29T04:50:17;32.90;;;23.70;;
37777;SDS011;23615;51.506;7.678;2023-01-29T04:52:56;35.40;;;24.93;;
37777;SDS011;23615;51.506;7.678;2023-01-29T04:58:25;38.63;;;24.20;;
37777;SDS011;23615;51.506;7.678;2023-01-29T05:00:56;35.13;;;24.02;;
37777;SDS011;23615;51.506;7.678;2023-01-29T05:03:25;33.15;;;22.70;;
37777;SDS011;23615;51.506;7.678;2023-01-29T05:05:52;36.42;;;24.35;;
37777;SDS011;23615;51.506;7.678;2023-01-29T05:08:20;35.63;;;24.17;;
37777;SDS011;23615;51.506;7.678;2023-01-29T05:10:48;36.05;;;24.05;;
37777;SDS011;23615;51.506;7.678;2023-01-29T05:13:17;36.07;;;24.67;;
37777;SDS011;23615;51.506;7.678;2023-01-29T05:15:48;36.20;;;24.60;;
37777;SDS011;23615;51.506;7.678;2023-01-29T05:18:21;35.35;;;24.52;;
37777;SDS011;23615;51.506;7.678;2023-01-29T05:20:47;33.73;;;22.97;;
37777;SDS011;23615;51.506;7.678;2023-01-29T05:23:20;34.53;;;23.55;;
37777;SDS011;23615;51.506;7.678;2023-01-29T05:25:47;35.53;;;24.07;;
37777;SDS011;23615;51.506;7.678;2023-01-29T05:28:13;33.33;;;23.33;;
37777;SDS011;23615;51.506;7.678;2023-01-29T05:30:45;33.83;;;23.75;;
37777;SDS011;23615;51.506;7.678;2023-01-29T05:35:48;36.03;;;25.47;;
37777;SDS011;23615;51.506;7.678;2023-01-29T05:38:14;40.75;;;26.95;;
37777;SDS011;23615;51.506;7.678;2023-01-29T05:40:41;37.80;;;25.42;;
37777;SDS011;23615;51.506;7.678;2023-01-29T05:43:14;38.60;;;26.87;;
37777;SDS011;23615;51.506;7.678;2023-01-29T05:45:39;40.08;;;26.20;;
37777;SDS011;23615;51.506;7.678;2023-01-29T05:48:05;40.67;;;27.70;;
37777;SDS011;23615;51.506;7.678;2023-01-29T05:50:30;39.20;;;27.77;;
37777;SDS011;23615;51.506;7.678;2023-01-29T05:52:56;40.20;;;27.87;;
37777;SDS011;23615;51.506;7.678;2023-01-29T05:55:22;41.17;;;27.77;;
37777;SDS011;23615;51.506;7.678;2023-01-29T05:57:48;41.03;;;28.43;;
37777;SDS011;23615;51.506;7.678;2023-01-29T06:00:13;44.20;;;29.17;;
37777;SDS011;23615;51.506;7.678;2023-01-29T06:02:39;39.38;;;27.02;;
37777;SDS011;23615;51.506;7.678;2023-01-29T06:05:04;43.20;;;29.00;;
37777;SDS011;23615;51.506;7.678;2023-01-29T06:07:30;39.25;;;26.48;;
37777;SDS011;23615;51.506;7.678;2023-01-29T06:09:55;42.67;;;27.53;;
37777;SDS011;23615;51.506;7.678;2023-01-29T06:12:20;43.13;;;29.07;;
37777;SDS011;23615;51.506;7.678;2023-01-29T06:14:46;42.13;;;28.40;;
37777;SDS011;23615;51.506;7.678;2023-01-29T06:17:11;43.53;;;29.37;;
37777;SDS011;23615;51.506;7.678;2023-01-29T06:19:36;40.20;;;26.63;;
37777;SDS011;23615;51.506;7.678;2023-01-29T06:22:02;44.83;;;29.70;;
37777;SDS011;23615;51.506;7.678;2023-01-29T06:24:27;46.65;;;31.08;;
37777;SDS011;23615;51.506;7.678;2023-01-29T06:26:52;48.13;;;30.30;;
37777;SDS011;23615;51.506;7.678;2023-01-29T06:29:17;47.00;;;30.50;;
37777;SDS011;23615;51.506;7.678;2023-01-29T06:31:43;46.17;;;30.50;;
37777;SDS011;23615;51.506;7.678;2023-01-29T06:34:08;48.20;;;31.70;;
37777;SDS011;23615;51.506;7.678;2023-01-29T06:36:34;45.33;;;30.33;;
37777;SDS011;23615;51.506;7.678;2023-01-29T06:38:59;43.25;;;27.70;;
37777;SDS011;23615;51.506;7.678;2023-01-29T06:41:24;45.40;;;28.97;;
37777;SDS011;23615;51.506;7.678;2023-01-29T06:43:50;44.63;;;30.30;;
37777;SDS011;23615;51.506;7.678;2023-01-29T06:46:15;41.13;;;27.53;;
37777;SDS011;23615;51.506;7.678;2023-01-29T06:48:41;45.92;;;29.42;;
37777;SDS011;23615;51.506;7.678;2023-01-29T06:51:07;47.20;;;30.10;;
37777;SDS011;23615;51.506;7.678;2023-01-29T06:53:34;42.85;;;28.60;;
37777;SDS011;23615;51.506;7.678;2023-01-29T06:56:00;47.43;;;30.40;;
37777;SDS011;23615;51.506;7.678;2023-01-29T06:58:26;46.05;;;29.20;;
37777;SDS011;23615;51.506;7.678;2023-01-29T07:00:51;47.87;;;31.47;;
37777;SDS011;23615;51.506;7.678;2023-01-29T07:03:17;45.77;;;29.17;;
37777;SDS011;23615;51.506;7.678;2023-01-29T07:05:42;50.03;;;31.13;;
37777;SDS011;23615;51.506;7.678;2023-01-29T07:08:07;47.80;;;30.60;;
37777;SDS011;23615;51.506;7.678;2023-01-29T07:10:33;43.70;;;27.60;;
37777;SDS011;23615;51.506;7.678;2023-01-29T07:12:59;46.47;;;30.48;;
37777;SDS011;23615;51.506;7.678;2023-01-29T07:15:25;44.87;;;29.43;;
37777;SDS011;23615;51.506;7.678;2023-01-29T07:17:57;43.25;;;27.52;;
37777;SDS011;23615;51.506;7.678;2023-01-29T07:20:27;43.15;;;28.85;;
37777;SDS011;23615;51.506;7.678;2023-01-29T07:25:35;42.80;;;29.20;;
37777;SDS011;23615;51.506;7.678;2023-01-29T07:28:00;45.47;;;27.95;;
37777;SDS011;23615;51.506;7.678;2023-01-29T07:30:25;40.30;;;27.37;;
37777;SDS011;23615;51.506;7.678;2023-01-29T07:32:51;46.80;;;30.20;;
37777;SDS011;23615;51.506;7.678;2023-01-29T07:35:17;40.13;;;26.30;;
37777;SDS011;23615;51.506;7.678;2023-01-29T07:37:42;43.13;;;29.07;;
37777;SDS011;23615;51.506;7.678;2023-01-29T07:40:07;42.43;;;28.27;;
37777;SDS011;23615;51.506;7.678;2023-01-29T07:42:37;42.57;;;27.67;;
37777;SDS011;23615;51.506;7.678;2023-01-29T07:45:03;42.22;;;28.38;;
37777;SDS011;23615;51.506;7.678;2023-01-29T07:47:29;41.05;;;26.85;;
37777;SDS011;23615;51.506;7.678;2023-01-29T07:49:55;41.95;;;28.60;;
37777;SDS011;23615;51.506;7.678;2023-01-29T07:52:20;44.07;;;28.90;;
37777;SDS011;23615;51.506;7.678;2023-01-29T07:54:45;40.03;;;26.67;;
37777;SDS011;23615;51.506;7.678;2023-01-29T07:57:10;38.93;;;26.43;;
37777;SDS011;23615;51.506;7.678;2023-01-29T07:59:36;39.87;;;25.77;;
37777;SDS011;23615;51.506;7.678;2023-01-29T08:02:01;39.47;;;27.03;;
37777;SDS011;23615;51.506;7.678;2023-01-29T08:04:26;40.13;;;27.17;;
37777;SDS011;23615;51.506;7.678;2023-01-29T08:06:51;44.20;;;28.23;;
37777;SDS011;23615;51.506;7.678;2023-01-29T08:09:17;42.97;;;28.27;;
37777;SDS011;23615;51.506;7.678;2023-01-29T08:11:42;45.37;;;29.33;;
37777;SDS011;23615;51.506;7.678;2023-01-29T08:14:07;41.07;;;26.60;;
37777;SDS011;23615;51.506;7.678;2023-01-29T08:16:33;37.35;;;25.50;;
37777;SDS011;23615;51.506;7.678;2023-01-29T08:19:00;44.88;;;28.15;;
37777;SDS011;23615;51.506;7.678;2023-01-29T08:21:26;43.13;;;29.33;;
37777;SDS011;23615;51.506;7.678;2023-01-29T08:23:51;43.60;;;28.03;;
37777;SDS011;23615;51.506;7.678;2023-01-29T08:26:17;43.37;;;28.27;;
37777;SDS011;23615;51.506;7.678;2023-01-29T08:28:42;45.17;;;27.23;;
37777;SDS011;23615;51.506;7.678;2023-01-29T08:31:14;39.23;;;25.40;;
37777;SDS011;23615;51.506;7.678;2023-01-29T08:33:40;43.33;;;27.25;;
37777;SDS011;23615;51.506;7.678;2023-01-29T08:36:06;41.87;;;26.80;;
37777;SDS011;23615;51.506;7.678;2023-01-29T08:38:32;40.88;;;26.95;;
37777;SDS011;23615;51.506;7.678;2023-01-29T08:40:58;41.20;;;26.93;;
37777;SDS011;23615;51.506;7.678;2023-01-29T08:43:23;39.87;;;24.63;;
37777;SDS011;23615;51.506;7.678;2023-01-29T08:45:48;45.15;;;28.25;;
37777;SDS011;23615;51.506;7.678;2023-01-29T08:48:13;40.33;;;26.52;;
37777;SDS011;23615;51.506;7.678;2023-01-29T08:50:39;44.20;;;28.17;;
37777;SDS011;23615;51.506;7.678;2023-01-29T08:53:05;41.07;;;27.10;;
37777;SDS011;23615;51.506;7.678;2023-01-29T08:55:32;45.08;;;28.75;;
37777;SDS011;23615;51.506;7.678;2023-01-29T08:57:58;44.38;;;28.63;;
37777;SDS011;23615;51.506;7.678;2023-01-29T09:00:24;41.67;;;26.53;;
37777;SDS011;23615;51.506;7.678;2023-01-29T09:02:49;42.10;;;26.97;;
37777;SDS011;23615;51.506;7.678;2023-01-29T09:05:14;41.70;;;27.57;;
37777;SDS011;23615;51.506;7.678;2023-01-29T09:07:40;44.20;;;27.40;;
37777;SDS011;23615;51.506;7.678;2023-01-29T09:10:05;41.00;;;26.30;;
37777;SDS011;23615;51.506;7.678;2023-01-29T09:12:32;42.78;;;27.08;;
37777;SDS011;23615;51.506;7.678;2023-01-29T09:14:57;40.00;;;26.23;;
37777;SDS011;23615;51.506;7.678;2023-01-29T09:17:22;44.93;;;26.97;;
37777;SDS011;23615;51.506;7.678;2023-01-29T09:19:48;42.37;;;26.83;;
37777;SDS011;23615;51.506;7.678;2023-01-29T09:22:13;38.53;;;25.47;;
37777;SDS011;23615;51.506;7.678;2023-01-29T09:24:38;39.17;;;25.53;;
37777;SDS011;23615;51.506;7.678;2023-01-29T09:27:04;39.38;;;27.30;;
37777;SDS011;23615;51.506;7.678;2023-01-29T09:29:30;42.67;;;27.70;;
37777;SDS011;23615;51.506;7.678;2023-01-29T09:31:55;44.53;;;28.60;;
37777;SDS011;23615;51.506;7.678;2023-01-29T09:34:20;43.13;;;27.70;;
37777;SDS011;23615;51.506;7.678;2023-01-29T09:36:46;41.13;;;27.17;;
37777;SDS011;23615;51.506;7.678;2023-01-29T09:39:11;42.07;;;26.87;;
37777;SDS011;23615;51.506;7.678;2023-01-29T09:46:51;38.97;;;25.98;;
37777;SDS011;23615;51.506;7.678;2023-01-29T09:49:28;36.93;;;25.07;;
37777;SDS011;23615;51.506;7.678;2023-01-29T09:52:06;38.58;;;25.33;;
37777;SDS011;23615;51.506;7.678;2023-01-29T09:54:59;39.17;;;25.50;;
37777;SDS011;23615;51.506;7.678;2023-01-29T09:57:29;40.67;;;26.85;;
37777;SDS011;23615;51.506;7.678;2023-01-29T10:00:02;40.92;;;26.58;;
37777;SDS011;23615;51.506;7.678;2023-01-29T10:02:35;38.80;;;26.23;;
37777;SDS011;23615;51.506;7.678;2023-01-29T10:08:06;39.90;;;27.40;;
37777;SDS011;23615;51.506;7.678;2023-01-29T10:10:47;41.63;;;27.05;;
37777;SDS011;23615;51.506;7.678;2023-01-29T10:13:43;43.30;;;27.80;;
37777;SDS011;23615;51.506;7.678;2023-01-29T10:16:29;42.45;;;28.33;;
37777;SDS011;23615;51.506;7.678;2023-01-29T10:19:07;40.90;;;27.95;;
37777;SDS011;23615;51.506;7.678;2023-01-29T10:24:44;38.40;;;26.07;;
37777;SDS011;23615;51.506;7.678;2023-01-29T10:27:28;39.77;;;27.20;;
37777;SDS011;23615;51.506;7.678;2023-01-29T10:30:02;40.20;;;27.58;;
37777;SDS011;23615;51.506;7.678;2023-01-29T10:32:33;42.22;;;26.85;;
37777;SDS011;23615;51.506;7.678;2023-01-29T10:35:01;39.65;;;27.70;;
37777;SDS011;23615;51.506;7.678;2023-01-29T10:37:33;42.17;;;27.45;;
37777;SDS011;23615;51.506;7.678;2023-01-29T10:40:11;43.40;;;27.50;;
37777;SDS011;23615;51.506;7.678;2023-01-29T10:42:45;41.20;;;28.30;;
37777;SDS011;23615;51.506;7.678;2023-01-29T10:48:20;39.22;;;26.42;;
37777;SDS011;23615;51.506;7.678;2023-01-29T10:51:09;39.42;;;27.20;;
37777;SDS011;23615;51.506;7.678;2023-01-29T10:53:56;40.03;;;27.23;;
37777;SDS011;23615;51.506;7.678;2023-01-29T10:56:37;40.92;;;27.27;;
37777;SDS011;23615;51.506;7.678;2023-01-29T11:02:01;45.00;;;28.50;;
37777;SDS011;23615;51.506;7.678;2023-01-29T11:04:27;39.72;;;27.70;;
37777;SDS011;23615;51.506;7.678;2023-01-29T11:06:55;41.20;;;27.33;;
37777;SDS011;23615;51.506;7.678;2023-01-29T11:09:30;38.20;;;26.52;;
37777;SDS011;23615;51.506;7.678;2023-01-29T11:14:45;42.78;;;28.55;;
37777;SDS011;23615;51.506;7.678;2023-01-29T11:17:19;39.67;;;26.70;;
37777;SDS011;23615;51.506;7.678;2023-01-29T11:19:47;38.15;;;26.60;;
37777;SDS011;23615;51.506;7.678;2023-01-29T11:22:18;37.08;;;27.13;;
37777;SDS011;23615;51.506;7.678;2023-01-29T11:24:46;39.15;;;26.42;;
37777;SDS011;23615;51.506;7.678;2023-01-29T11:27:34;36.60;;;26.58;;
37777;SDS011;23615;51.506;7.678;2023-01-29T11:30:09;39.05;;;27.40;;
37777;SDS011;23615;51.506;7.678;2023-01-29T11:32:40;38.42;;;26.42;;
37777;SDS011;23615;51.506;7.678;2023-01-29T11:37:37;37.40;;;26.23;;
37777;SDS011;23615;51.506;7.678;2023-01-29T11:40:37;40.28;;;27.50;;
37777;SDS011;23615;51.506;7.678;2023-01-29T11:43:09;39.22;;;27.83;;
37777;SDS011;23615;51.506;7.678;2023-01-29T11:45:41;36.90;;;26.10;;
37777;SDS011;23615;51.506;7.678;2023-01-29T11:48:11;36.47;;;26.77;;
37777;SDS011;23615;51.506;7.678;2023-01-29T11:50:40;36.92;;;26.92;;
37777;SDS011;23615;51.506;7.678;2023-01-29T11:53:05;33.57;;;24.57;;
37777;SDS011;23615;51.506;7.678;2023-01-29T11:55:43;35.90;;;24.55;;
37777;SDS011;23615;51.506;7.678;2023-01-29T11:58:12;34.30;;;24.60;;
37777;SDS011;23615;51.506;7.678;2023-01-29T12:00:44;35.75;;;24.83;;
37777;SDS011;23615;51.506;7.678;2023-01-29T12:03:18;32.42;;;23.23;;
37777;SDS011;23615;51.506;7.678;2023-01-29T12:06:07;34.03;;;24.45;;
37777;SDS011;23615;51.506;7.678;2023-01-29T12:08:39;34.37;;;25.07;;
37777;SDS011;23615;51.506;7.678;2023-01-29T12:11:11;34.22;;;24.17;;
37777;SDS011;23615;51.506;7.678;2023-01-29T12:13:39;34.40;;;25.13;;
37777;SDS011;23615;51.506;7.678;2023-01-29T12:16:18;32.60;;;23.98;;
37777;SDS011;23615;51.506;7.678;2023-01-29T12:18:49;34.20;;;24.20;;
37777;SDS011;23615;51.506;7.678;2023-01-29T12:21:37;34.15;;;24.00;;
37777;SDS011;23615;51.506;7.678;2023-01-29T12:24:30;34.08;;;24.38;;
37777;SDS011;23615;51.506;7.678;2023-01-29T12:27:06;33.10;;;24.27;;
37777;SDS011;23615;51.506;7.678;2023-01-29T12:29:41;35.25;;;25.52;;
37777;SDS011;23615;51.506;7.678;2023-01-29T12:32:25;35.00;;;24.30;;
37777;SDS011;23615;51.506;7.678;2023-01-29T12:35:06;35.60;;;25.13;;
37777;SDS011;23615;51.506;7.678;2023-01-29T12:37:41;34.42;;;24.63;;
37777;SDS011;23615;51.506;7.678;2023-01-29T12:40:16;35.50;;;24.75;;
37777;SDS011;23615;51.506;7.678;2023-01-29T12:42:50;33.15;;;23.55;;
37777;SDS011;23615;51.506;7.678;2023-01-29T12:45:21;32.53;;;23.10;;
37777;SDS011;23615;51.506;7.678;2023-01-29T12:47:51;32.88;;;23.67;;
37777;SDS011;23615;51.506;7.678;2023-01-29T12:50:32;31.87;;;23.10;;
37777;SDS011;23615;51.506;7.678;2023-01-29T12:55:53;32.83;;;23.52;;
37777;SDS011;23615;51.506;7.678;2023-01-29T12:58:34;32.33;;;23.27;;
37777;SDS011;23615;51.506;7.678;2023-01-29T13:01:07;31.77;;;21.92;;
37777;SDS011;23615;51.506;7.678;2023-01-29T13:03:44;29.95;;;21.83;;
37777;SDS011;23615;51.506;7.678;2023-01-29T13:06:17;31.83;;;21.90;;
37777;SDS011;23615;51.506;7.678;2023-01-29T13:08:51;30.23;;;21.30;;
37777;SDS011;23615;51.506;7.678;2023-01-29T13:11:24;31.67;;;22.73;;
37777;SDS011;23615;51.506;7.678;2023-01-29T13:14:11;30.80;;;21.95;;
37777;SDS011;23615;51.506;7.678;2023-01-29T13:16:43;31.50;;;21.88;;
37777;SDS011;23615;51.506;7.678;2023-01-29T13:19:23;31.50;;;21.20;;
37777;SDS011;23615;51.506;7.678;2023-01-29T13:21:53;30.00;;;20.45;;
37777;SDS011;23615;51.506;7.678;2023-01-29T13:24:23;30.10;;;20.63;;
37777;SDS011;23615;51.506;7.678;2023-01-29T13:26:54;27.13;;;19.93;;
37777;SDS011;23615;51.506;7.678;2023-01-29T13:29:24;28.67;;;19.33;;
37777;SDS011;23615;51.506;7.678;2023-01-29T13:31:52;29.05;;;20.60;;
37777;SDS011;23615;51.506;7.678;2023-01-29T13:34:20;26.70;;;19.17;;
37777;SDS011;23615;51.506;7.678;2023-01-29T13:36:53;24.97;;;18.60;;
37777;SDS011;23615;51.506;7.678;2023-01-29T13:39:22;27.30;;;19.37;;
37777;SDS011;23615;51.506;7.678;2023-01-29T13:41:51;27.92;;;19.13;;
37777;SDS011;23615;51.506;7.678;2023-01-29T13:46:52;26.88;;;18.55;;
37777;SDS011;23615;51.506;7.678;2023-01-29T13:49:39;26.25;;;18.25;;
37777;SDS011;23615;51.506;7.678;2023-01-29T13:52:27;24.80;;;18.07;;
37777;SDS011;23615;51.506;7.678;2023-01-29T13:54:58;26.15;;;18.25;;
37777;SDS011;23615;51.506;7.678;2023-01-29T14:07:57;26.77;;;19.30;;
37777;SDS011;23615;51.506;7.678;2023-01-29T14:10:24;25.42;;;18.85;;
37777;SDS011;23615;51.506;7.678;2023-01-29T14:13:24;26.42;;;19.27;;
37777;SDS011;23615;51.506;7.678;2023-01-29T14:15:42;26.57;;;17.87;;
37777;SDS011;23615;51.506;7.678;2023-01-29T14:18:31;28.53;;;19.47;;
37777;SDS011;23615;51.506;7.678;2023-01-29T14:21:02;26.85;;;18.77;;
37777;SDS011;23615;51.506;7.678;2023-01-29T14:23:49;26.27;;;19.23;;
37777;SDS011;23615;51.506;7.678;2023-01-29T14:26:21;25.40;;;18.10;;
37777;SDS011;23615;51.506;7.678;2023-01-29T14:28:57;26.17;;;19.07;;
37777;SDS011;23615;51.506;7.678;2023-01-29T14:34:12;24.23;;;17.45;;
37777;SDS011;23615;51.506;7.678;2023-01-29T14:36:43;25.10;;;17.17;;
37777;SDS011;23615;51.506;7.678;2023-01-29T14:39:19;26.80;;;17.92;;
37777;SDS011;23615;51.506;7.678;2023-01-29T14:41:45;25.50;;;17.83;;
37777;SDS011;23615;51.506;7.678;2023-01-29T14:47:20;22.10;;;16.58;;
37777;SDS011;23615;51.506;7.678;2023-01-29T14:50:36;25.20;;;17.05;;
37777;SDS011;23615;51.506;7.678;2023-01-29T14:52:53;25.63;;;18.17;;
37777;SDS011;23615;51.506;7.678;2023-01-29T14:58:38;22.60;;;15.87;;
37777;SDS011;23615;51.506;7.678;2023-01-29T15:03:50;23.58;;;15.73;;
37777;SDS011;23615;51.506;7.678;2023-01-29T15:06:19;24.17;;;16.80;;
37777;SDS011;23615;51.506;7.678;2023-01-29T15:12:04;23.20;;;16.27;;
37777;SDS011;23615;51.506;7.678;2023-01-29T15:14:35;24.05;;;17.27;;
37777;SDS011;23615;51.506;7.678;2023-01-29T15:17:12;22.65;;;15.75;;
37777;SDS011;23615;51.506;7.678;2023-01-29T15:19:46;24.90;;;16.45;;
37777;SDS011;23615;51.506;7.678;2023-01-29T15:22:13;22.15;;;16.33;;
37777;SDS011;23615;51.506;7.678;2023-01-29T15:24:40;23.77;;;16.55;;
37777;SDS011;23615;51.506;7.678;2023-01-29T15:27:12;21.27;;;14.63;;
37777;SDS011;23615;51.506;7.678;2023-01-29T15:29:40;20.92;;;14.80;;
37777;SDS011;23615;51.506;7.678;2023-01-29T15:32:07;22.38;;;15.75;;
37777;SDS011;23615;51.506;7.678;2023-01-29T15:34:40;21.10;;;14.85;;
37777;SDS011;23615;51.506;7.678;2023-01-29T15:37:16;19.77;;;14.45;;
37777;SDS011;23615;51.506;7.678;2023-01-29T15:39:49;22.40;;;14.85;;
37777;SDS011;23615;51.506;7.678;2023-01-29T15:42:14;20.77;;;14.63;;
37777;SDS011;23615;51.506;7.678;2023-01-29T15:44:45;20.08;;;14.52;;
37777;SDS011;23615;51.506;7.678;2023-01-29T15:47:11;20.43;;;15.13;;
37777;SDS011;23615;51.506;7.678;2023-01-29T15:49:38;20.02;;;14.30;;
37777;SDS011;23615;51.506;7.678;2023-01-29T15:52:05;20.88;;;14.80;;
37777;SDS011;23615;51.506;7.678;2023-01-29T15:54:37;20.13;;;14.35;;
37777;SDS011;23615;51.506;7.678;2023-01-29T15:57:02;20.73;;;14.40;;
37777;SDS011;23615;51.506;7.678;2023-01-29T15:59:29;20.37;;;14.13;;
37777;SDS011;23615;51.506;7.678;2023-01-29T16:02:15;20.92;;;14.55;;
37777;SDS011;23615;51.506;7.678;2023-01-29T16:04:42;20.70;;;14.65;;
37777;SDS011;23615;51.506;7.678;2023-01-29T16:07:08;21.25;;;14.95;;
37777;SDS011;23615;51.506;7.678;2023-01-29T16:09:35;19.87;;;14.80;;
37777;SDS011;23615;51.506;7.678;2023-01-29T16:12:01;24.63;;;15.82;;
37777;SDS011;23615;51.506;7.678;2023-01-29T16:14:27;19.85;;;14.50;;
37777;SDS011;23615;51.506;7.678;2023-01-29T16:16:53;21.23;;;14.90;;
37777;SDS011;23615;51.506;7.678;2023-01-29T16:19:26;22.90;;;14.97;;
37777;SDS011;23615;51.506;7.678;2023-01-29T16:21:57;19.00;;;14.20;;